sensor_id;sensor_type;location;lat;lon;timestamp;pressure;altitude;pressure_sealevel;temperature;humidity
48041;BME280;33815;48.386;11.738;2023-05-02T00:00:56;96543.94;;;7.49;100.00
48041;BME280;33815;48.386;11.738;2023-05-02T00:03:23;96558.69;;;7.59;100.00
48041;BME280;33815;48.386;11.738;2023-05-02T00:05:48;96558.00;;;7.57;100.00
48041;BME280;33815;48.386;11.738;2023-05-02T00:08:13;96559.81;;;7.56;100.00
48041;BME280;33815;48.386;11.738;2023-05-02T00:10:40;96555.16;;;7.60;100.00
48041;BME280;33815;48.386;11.738;2023-05-02T00:13:05;96561.16;;;7.60;100.00
48041;BME280;33815;48.386;11.738;2023-05-02T00:15:30;96544.06;;;7.48;100.00
48041;BME280;33815;48.386;11.738;2023-05-02T00:17:56;96557.06;;;7.58;100.00
48041;BME280;33815;48.386;11.738;2023-05-02T00:20:21;96545.69;;;7.49;100.00
48041;BME280;33815;48.386;11.738;2023-05-02T00:22:46;96561.28;;;7.59;100.00
48041;BME280;33815;48.386;11.738;2023-05-02T00:25:12;96541.44;;;7.38;100.00
48041;BME280;33815;48.386;11.738;2023-05-02T00:27:44;96543.34;;;7.36;100.00
48041;BME280;33815;48.386;11.738;2023-05-02T00:30:11;96568.22;;;7.48;100.00
48041;BME280;33815;48.386;11.738;2023-05-02T00:32:36;96564.94;;;7.46;100.00
48041;BME280;33815;48.386;11.738;2023-05-02T00:35:02;96560.28;;;7.40;100.00
48041;BME280;33815;48.386;11.738;2023-05-02T00:37:27;96560.00;;;7.43;100.00
48041;BME280;33815;48.386;11.738;2023-05-02T00:39:53;96560.97;;;7.42;100.00
48041;BME280;33815;48.386;11.738;2023-05-02T00:42:18;96554.78;;;7.33;100.00
48041;BME280;33815;48.386;11.738;2023-05-02T00:44:43;96553.28;;;7.31;100.00
48041;BME280;33815;48.386;11.738;2023-05-02T00:47:09;96565.69;;;7.27;100.00
48041;BME280;33815;48.386;11.738;2023-05-02T00:49:34;96565.91;;;7.14;100.00
48041;BME280;33815;48.386;11.738;2023-05-02T00:51:59;96563.94;;;7.07;100.00
48041;BME280;33815;48.386;11.738;2023-05-02T00:54:25;96574.44;;;7.05;100.00
48041;BME280;33815;48.386;11.738;2023-05-02T00:56:51;96552.97;;;6.93;100.00
48041;BME280;33815;48.386;11.738;2023-05-02T00:59:16;96561.25;;;6.87;100.00
48041;BME280;33815;48.386;11.738;2023-05-02T01:14:20;96572.50;;;6.76;100.00
48041;BME280;33815;48.386;11.738;2023-05-02T01:16:47;96575.22;;;6.75;100.00
48041;BME280;33815;48.386;11.738;2023-05-02T01:19:31;96568.72;;;6.80;100.00
48041;BME280;33815;48.386;11.738;2023-05-02T01:22:00;96573.31;;;6.77;100.00
48041;BME280;33815;48.386;11.738;2023-05-02T01:24:31;96574.06;;;6.67;100.00
48041;BME280;33815;48.386;11.738;2023-05-02T01:27:23;96571.25;;;6.71;100.00
48041;BME280;33815;48.386;11.738;2023-05-02T01:29:51;96562.69;;;6.59;100.00
48041;BME280;33815;48.386;11.738;2023-05-02T01:32:19;96578.31;;;6.68;100.00
48041;BME280;33815;48.386;11.738;2023-05-02T01:34:47;96589.47;;;6.69;100.00
48041;BME280;33815;48.386;11.738;2023-05-02T01:37:15;96585.22;;;6.79;100.00
48041;BME280;33815;48.386;11.738;2023-05-02T01:39:43;96589.31;;;6.82;100.00
48041;BME280;33815;48.386;11.738;2023-05-02T01:42:10;96590.38;;;6.79;100.00
48041;BME280;33815;48.386;11.738;2023-05-02T01:44:37;96589.53;;;6.79;100.00
48041;BME280;33815;48.386;11.738;2023-05-02T01:47:04;96594.50;;;6.82;100.00
48041;BME280;33815;48.386;11.738;2023-05-02T01:49:32;96598.84;;;6.81;100.00
48041;BME280;33815;48.386;11.738;2023-05-02T01:52:02;96591.19;;;6.80;100.00
48041;BME280;33815;48.386;11.738;2023-05-02T01:54:30;96594.84;;;6.77;100.00
48041;BME280;33815;48.386;11.738;2023-05-02T01:56:58;96574.19;;;6.66;100.00
48041;BME280;33815;48.386;11.738;2023-05-02T01:59:25;96589.81;;;6.76;100.00
48041;BME280;33815;48.386;11.738;2023-05-02T02:01:53;96597.72;;;6.74;100.00
48041;BME280;33815;48.386;11.738;2023-05-02T02:04:20;96588.94;;;6.65;100.00
48041;BME280;33815;48.386;11.738;2023-05-02T02:06:51;96594.91;;;6.66;100.00
48041;BME280;33815;48.386;11.738;2023-05-02T02:09:17;96604.34;;;6.67;100.00
48041;BME280;33815;48.386;11.738;2023-05-02T02:11:48;96581.59;;;6.49;100.00
48041;BME280;33815;48.386;11.738;2023-05-02T02:14:20;96590.63;;;6.55;100.00
48041;BME280;33815;48.386;11.738;2023-05-02T02:16:46;96602.88;;;6.53;100.00
48041;BME280;33815;48.386;11.738;2023-05-02T02:19:14;96601.09;;;6.54;100.00
48041;BME280;33815;48.386;11.738;2023-05-02T02:21:42;96609.13;;;6.50;100.00
48041;BME280;33815;48.386;11.738;2023-05-02T02:24:08;96588.56;;;6.38;100.00
48041;BME280;33815;48.386;11.738;2023-05-02T02:26:35;96606.91;;;6.46;100.00
48041;BME280;33815;48.386;11.738;2023-05-02T02:29:02;96611.38;;;6.44;100.00
48041;BME280;33815;48.386;11.738;2023-05-02T02:31:31;96619.38;;;6.41;100.00
48041;BME280;33815;48.386;11.738;2023-05-02T02:33:57;96596.38;;;6.26;100.00
48041;BME280;33815;48.386;11.738;2023-05-02T02:36:32;96624.81;;;6.38;100.00
48041;BME280;33815;48.386;11.738;2023-05-02T02:39:07;96628.22;;;6.38;100.00
48041;BME280;33815;48.386;11.738;2023-05-02T02:41:42;96629.88;;;6.39;100.00
48041;BME280;33815;48.386;11.738;2023-05-02T02:44:24;96628.22;;;6.38;100.00
48041;BME280;33815;48.386;11.738;2023-05-02T02:47:08;96631.66;;;6.39;100.00
48041;BME280;33815;48.386;11.738;2023-05-02T02:49:50;96629.75;;;6.41;100.00
48041;BME280;33815;48.386;11.738;2023-05-02T02:52:47;96635.97;;;6.38;100.00
48041;BME280;33815;48.386;11.738;2023-05-02T02:55:26;96635.13;;;6.49;100.00
48041;BME280;33815;48.386;11.738;2023-05-02T03:00:24;96642.59;;;6.63;100.00
48041;BME280;33815;48.386;11.738;2023-05-02T03:02:51;96636.16;;;6.58;100.00
48041;BME280;33815;48.386;11.738;2023-05-02T03:05:18;96637.00;;;6.58;100.00
48041;BME280;33815;48.386;11.738;2023-05-02T03:07:44;96637.13;;;6.57;100.00
48041;BME280;33815;48.386;11.738;2023-05-02T03:10:09;96638.88;;;6.56;100.00
48041;BME280;33815;48.386;11.738;2023-05-02T03:12:36;96644.03;;;6.56;100.00
48041;BME280;33815;48.386;11.738;2023-05-02T03:17:59;96650.78;;;6.47;100.00
48041;BME280;33815;48.386;11.738;2023-05-02T03:20:25;96651.84;;;6.45;100.00
48041;BME280;33815;48.386;11.738;2023-05-02T03:22:50;96652.09;;;6.42;100.00
48041;BME280;33815;48.386;11.738;2023-05-02T03:25:16;96652.34;;;6.39;100.00
48041;BME280;33815;48.386;11.738;2023-05-02T03:27:41;96656.81;;;6.37;100.00
48041;BME280;33815;48.386;11.738;2023-05-02T03:30:07;96653.91;;;6.30;100.00
48041;BME280;33815;48.386;11.738;2023-05-02T03:32:32;96659.19;;;6.28;100.00
48041;BME280;33815;48.386;11.738;2023-05-02T03:34:57;96654.38;;;6.24;100.00
48041;BME280;33815;48.386;11.738;2023-05-02T03:37:23;96656.97;;;6.24;100.00
48041;BME280;33815;48.386;11.738;2023-05-02T03:39:49;96653.44;;;6.25;100.00
48041;BME280;33815;48.386;11.738;2023-05-02T03:42:14;96645.00;;;6.11;100.00
48041;BME280;33815;48.386;11.738;2023-05-02T03:44:39;96661.94;;;6.15;100.00
48041;BME280;33815;48.386;11.738;2023-05-02T03:47:05;96665.56;;;6.13;100.00
48041;BME280;33815;48.386;11.738;2023-05-02T03:49:33;96662.78;;;6.05;100.00
48041;BME280;33815;48.386;11.738;2023-05-02T03:51:58;96664.28;;;5.96;100.00
48041;BME280;33815;48.386;11.738;2023-05-02T03:54:24;96673.47;;;6.00;100.00
48041;BME280;33815;48.386;11.738;2023-05-02T03:56:49;96661.94;;;5.93;100.00
48041;BME280;33815;48.386;11.738;2023-05-02T03:59:14;96681.00;;;6.03;100.00
48041;BME280;33815;48.386;11.738;2023-05-02T04:01:39;96669.44;;;5.96;100.00
48041;BME280;33815;48.386;11.738;2023-05-02T04:04:05;96686.16;;;6.03;100.00
48041;BME280;33815;48.386;11.738;2023-05-02T04:06:30;96664.88;;;5.88;100.00
48041;BME280;33815;48.386;11.738;2023-05-02T04:08:56;96693.94;;;6.03;100.00
48041;BME280;33815;48.386;11.738;2023-05-02T04:11:23;96691.47;;;6.02;100.00
48041;BME280;33815;48.386;11.738;2023-05-02T04:13:51;96676.03;;;5.89;100.00
48041;BME280;33815;48.386;11.738;2023-05-02T04:16:16;96692.03;;;5.94;100.00
48041;BME280;33815;48.386;11.738;2023-05-02T04:18:41;96685.34;;;5.91;100.00
48041;BME280;33815;48.386;11.738;2023-05-02T04:21:07;96671.22;;;5.84;100.00
48041;BME280;33815;48.386;11.738;2023-05-02T04:23:35;96696.97;;;5.97;100.00
48041;BME280;33815;48.386;11.738;2023-05-02T04:26:00;96692.97;;;5.93;100.00
48041;BME280;33815;48.386;11.738;2023-05-02T04:28:25;96696.97;;;5.97;100.00
48041;BME280;33815;48.386;11.738;2023-05-02T04:30:51;96691.56;;;5.89;100.00
48041;BME280;33815;48.386;11.738;2023-05-02T04:33:16;96691.22;;;5.93;100.00
48041;BME280;33815;48.386;11.738;2023-05-02T04:35:42;96711.94;;;6.05;100.00
48041;BME280;33815;48.386;11.738;2023-05-02T04:38:08;96714.75;;;6.13;100.00
48041;BME280;33815;48.386;11.738;2023-05-02T04:40:33;96717.34;;;6.24;100.00
48041;BME280;33815;48.386;11.738;2023-05-02T04:42:58;96721.22;;;6.30;100.00
48041;BME280;33815;48.386;11.738;2023-05-02T04:45:24;96722.63;;;6.34;100.00
48041;BME280;33815;48.386;11.738;2023-05-02T04:47:50;96702.72;;;6.34;100.00
48041;BME280;33815;48.386;11.738;2023-05-02T04:50:15;96733.41;;;6.50;100.00
48041;BME280;33815;48.386;11.738;2023-05-02T04:52:41;96708.00;;;6.44;100.00
48041;BME280;33815;48.386;11.738;2023-05-02T04:55:06;96736.31;;;6.68;100.00
48041;BME280;33815;48.386;11.738;2023-05-02T04:57:31;96736.44;;;6.67;100.00
48041;BME280;33815;48.386;11.738;2023-05-02T04:59:57;96737.72;;;6.73;100.00
48041;BME280;33815;48.386;11.738;2023-05-02T05:02:22;96742.38;;;6.79;100.00
48041;BME280;33815;48.386;11.738;2023-05-02T05:04:49;96745.94;;;6.78;100.00
48041;BME280;33815;48.386;11.738;2023-05-02T05:07:15;96733.94;;;6.77;100.00
48041;BME280;33815;48.386;11.738;2023-05-02T05:09:40;96753.09;;;6.85;100.00
48041;BME280;33815;48.386;11.738;2023-05-02T05:12:05;96751.09;;;6.89;100.00
48041;BME280;33815;48.386;11.738;2023-05-02T05:14:30;96752.97;;;6.87;100.00
48041;BME280;33815;48.386;11.738;2023-05-02T05:16:56;96753.38;;;7.03;100.00
48041;BME280;33815;48.386;11.738;2023-05-02T05:19:22;96757.25;;;7.09;100.00
48041;BME280;33815;48.386;11.738;2023-05-02T05:21:47;96762.44;;;7.09;100.00
48041;BME280;33815;48.386;11.738;2023-05-02T05:24:12;96758.66;;;7.13;100.00
48041;BME280;33815;48.386;11.738;2023-05-02T05:26:37;96765.81;;;7.21;100.00
48041;BME280;33815;48.386;11.738;2023-05-02T05:29:03;96767.22;;;7.25;100.00
48041;BME280;33815;48.386;11.738;2023-05-02T05:31:28;96752.53;;;7.35;100.00
48041;BME280;33815;48.386;11.738;2023-05-02T05:33:53;96760.94;;;7.49;100.00
48041;BME280;33815;48.386;11.738;2023-05-02T05:36:19;96757.59;;;7.58;100.00
48041;BME280;33815;48.386;11.738;2023-05-02T05:38:44;96760.88;;;7.60;100.00
48041;BME280;33815;48.386;11.738;2023-05-02T05:41:10;96760.38;;;7.66;100.00
48041;BME280;33815;48.386;11.738;2023-05-02T05:43:35;96749.34;;;7.74;100.00
48041;BME280;33815;48.386;11.738;2023-05-02T05:46:01;96768.91;;;7.78;100.00
48041;BME280;33815;48.386;11.738;2023-05-02T05:48:27;96767.75;;;7.92;100.00
48041;BME280;33815;48.386;11.738;2023-05-02T05:50:52;96767.50;;;7.95;100.00
48041;BME280;33815;48.386;11.738;2023-05-02T05:53:18;96761.66;;;8.03;100.00
48041;BME280;33815;48.386;11.738;2023-05-02T05:55:43;96764.00;;;8.06;100.00
48041;BME280;33815;48.386;11.738;2023-05-02T05:58:09;96771.06;;;8.25;100.00
48041;BME280;33815;48.386;11.738;2023-05-02T06:00:35;96761.06;;;8.30;100.00
48041;BME280;33815;48.386;11.738;2023-05-02T06:03:01;96783.28;;;8.44;100.00
48041;BME280;33815;48.386;11.738;2023-05-02T06:05:27;96762.00;;;8.50;100.00
48041;BME280;33815;48.386;11.738;2023-05-02T06:07:52;96777.06;;;8.56;100.00
48041;BME280;33815;48.386;11.738;2023-05-02T06:10:18;96775.19;;;8.68;100.00
48041;BME280;33815;48.386;11.738;2023-05-02T06:12:43;96783.09;;;8.77;100.00
48041;BME280;33815;48.386;11.738;2023-05-02T06:15:08;96788.44;;;8.75;100.00
48041;BME280;33815;48.386;11.738;2023-05-02T06:17:34;96793.94;;;8.82;100.00
48041;BME280;33815;48.386;11.738;2023-05-02T06:19:59;96803.09;;;8.86;100.00
48041;BME280;33815;48.386;11.738;2023-05-02T06:22:24;96786.13;;;8.82;100.00
48041;BME280;33815;48.386;11.738;2023-05-02T06:24:49;96799.00;;;8.83;100.00
48041;BME280;33815;48.386;11.738;2023-05-02T06:27:15;96806.94;;;8.82;100.00
48041;BME280;33815;48.386;11.738;2023-05-02T06:29:40;96811.47;;;8.89;100.00
48041;BME280;33815;48.386;11.738;2023-05-02T06:32:05;96824.22;;;9.02;100.00
48041;BME280;33815;48.386;11.738;2023-05-02T06:34:31;96798.19;;;8.93;100.00
48041;BME280;33815;48.386;11.738;2023-05-02T06:36:57;96809.44;;;9.03;100.00
48041;BME280;33815;48.386;11.738;2023-05-02T06:39:23;96824.53;;;9.19;100.00
48041;BME280;33815;48.386;11.738;2023-05-02T06:41:48;96807.41;;;9.26;100.00
48041;BME280;33815;48.386;11.738;2023-05-02T06:44:14;96827.81;;;9.50;100.00
48041;BME280;33815;48.386;11.738;2023-05-02T06:46:39;96827.78;;;9.70;100.00
48041;BME280;33815;48.386;11.738;2023-05-02T06:49:04;96835.19;;;9.74;100.00
48041;BME280;33815;48.386;11.738;2023-05-02T06:51:30;96829.16;;;9.84;100.00
48041;BME280;33815;48.386;11.738;2023-05-02T06:53:56;96845.69;;;10.02;100.00
48041;BME280;33815;48.386;11.738;2023-05-02T06:56:22;96840.28;;;10.33;100.00
48041;BME280;33815;48.386;11.738;2023-05-02T06:58:49;96838.06;;;10.48;100.00
48041;BME280;33815;48.386;11.738;2023-05-02T07:01:15;96829.97;;;10.51;100.00
48041;BME280;33815;48.386;11.738;2023-05-02T07:03:40;96830.34;;;10.56;100.00
48041;BME280;33815;48.386;11.738;2023-05-02T07:06:05;96847.88;;;10.64;100.00
48041;BME280;33815;48.386;11.738;2023-05-02T07:08:30;96851.34;;;10.83;100.00
48041;BME280;33815;48.386;11.738;2023-05-02T07:10:56;96850.09;;;10.87;100.00
48041;BME280;33815;48.386;11.738;2023-05-02T07:13:21;96852.31;;;10.82;100.00
48041;BME280;33815;48.386;11.738;2023-05-02T07:15:46;96856.50;;;10.92;100.00
48041;BME280;33815;48.386;11.738;2023-05-02T07:18:11;96850.47;;;11.20;100.00
48041;BME280;33815;48.386;11.738;2023-05-02T07:20:37;96847.47;;;11.32;100.00
48041;BME280;33815;48.386;11.738;2023-05-02T07:23:03;96853.97;;;11.46;100.00
48041;BME280;33815;48.386;11.738;2023-05-02T07:25:28;96857.56;;;11.45;100.00
48041;BME280;33815;48.386;11.738;2023-05-02T07:27:53;96857.63;;;11.72;100.00
48041;BME280;33815;48.386;11.738;2023-05-02T07:30:18;96845.31;;;11.64;100.00
48041;BME280;33815;48.386;11.738;2023-05-02T07:32:43;96851.28;;;11.74;100.00
48041;BME280;33815;48.386;11.738;2023-05-02T07:35:09;96848.31;;;11.69;100.00
48041;BME280;33815;48.386;11.738;2023-05-02T07:37:34;96844.88;;;11.87;100.00
48041;BME280;33815;48.386;11.738;2023-05-02T07:40:00;96853.34;;;11.89;100.00
48041;BME280;33815;48.386;11.738;2023-05-02T07:42:29;96838.97;;;11.48;100.00
48041;BME280;33815;48.386;11.738;2023-05-02T07:44:55;96855.00;;;11.90;100.00
48041;BME280;33815;48.386;11.738;2023-05-02T07:47:20;96860.44;;;11.96;100.00
48041;BME280;33815;48.386;11.738;2023-05-02T07:49:50;96844.25;;;11.93;100.00
48041;BME280;33815;48.386;11.738;2023-05-02T07:52:15;96860.56;;;12.13;100.00
48041;BME280;33815;48.386;11.738;2023-05-02T07:54:40;96843.94;;;12.14;100.00
48041;BME280;33815;48.386;11.738;2023-05-02T07:57:06;96849.91;;;12.32;100.00
48041;BME280;33815;48.386;11.738;2023-05-02T07:59:32;96860.78;;;12.46;100.00
48041;BME280;33815;48.386;11.738;2023-05-02T08:01:58;96871.72;;;12.76;100.00
48041;BME280;33815;48.386;11.738;2023-05-02T08:04:23;96867.59;;;12.73;100.00
48041;BME280;33815;48.386;11.738;2023-05-02T08:06:48;96867.06;;;13.04;100.00
48041;BME280;33815;48.386;11.738;2023-05-02T08:09:14;96876.94;;;13.18;100.00
48041;BME280;33815;48.386;11.738;2023-05-02T08:11:39;96864.78;;;13.77;100.00
48041;BME280;33815;48.386;11.738;2023-05-02T08:14:04;96870.81;;;13.69;100.00
48041;BME280;33815;48.386;11.738;2023-05-02T08:16:30;96859.53;;;13.60;99.01
48041;BME280;33815;48.386;11.738;2023-05-02T08:18:55;96861.84;;;13.80;100.00
48041;BME280;33815;48.386;11.738;2023-05-02T08:21:21;96873.97;;;13.89;100.00
48041;BME280;33815;48.386;11.738;2023-05-02T08:23:46;96872.97;;;13.98;96.11
48041;BME280;33815;48.386;11.738;2023-05-02T08:26:11;96878.06;;;13.83;99.02
48041;BME280;33815;48.386;11.738;2023-05-02T08:28:36;96872.16;;;13.98;98.42
48041;BME280;33815;48.386;11.738;2023-05-02T08:31:02;96877.25;;;13.75;99.79
48041;BME280;33815;48.386;11.738;2023-05-02T08:33:27;96872.13;;;13.73;97.01
48041;BME280;33815;48.386;11.738;2023-05-02T08:35:52;96871.47;;;13.54;100.00
48041;BME280;33815;48.386;11.738;2023-05-02T08:38:18;96865.94;;;13.74;99.16
48041;BME280;33815;48.386;11.738;2023-05-02T08:40:43;96873.78;;;13.74;100.00
48041;BME280;33815;48.386;11.738;2023-05-02T08:43:10;96876.75;;;13.96;100.00
48041;BME280;33815;48.386;11.738;2023-05-02T08:45:41;96878.06;;;13.83;100.00
48041;BME280;33815;48.386;11.738;2023-05-02T08:48:08;96880.16;;;14.29;97.50
48041;BME280;33815;48.386;11.738;2023-05-02T08:53:07;96881.63;;;14.23;94.52
48041;BME280;33815;48.386;11.738;2023-05-02T08:55:33;96881.31;;;14.18;94.42
48041;BME280;33815;48.386;11.738;2023-05-02T08:58:02;96866.25;;;14.04;94.27
48041;BME280;33815;48.386;11.738;2023-05-02T09:00:28;96883.59;;;14.21;98.93
48041;BME280;33815;48.386;11.738;2023-05-02T09:05:28;96886.75;;;14.17;92.21
48041;BME280;33815;48.386;11.738;2023-05-02T09:07:57;96894.59;;;14.09;93.22
48041;BME280;33815;48.386;11.738;2023-05-02T09:10:24;96884.63;;;13.87;92.98
48041;BME280;33815;48.386;11.738;2023-05-02T09:12:52;96897.38;;;13.74;93.51
48041;BME280;33815;48.386;11.738;2023-05-02T09:15:19;96898.88;;;13.93;94.96
48041;BME280;33815;48.386;11.738;2023-05-02T09:17:46;96906.88;;;13.83;97.25
48041;BME280;33815;48.386;11.738;2023-05-02T09:20:13;96910.66;;;13.89;96.03
48041;BME280;33815;48.386;11.738;2023-05-02T09:22:38;96890.81;;;13.78;97.86
48041;BME280;33815;48.386;11.738;2023-05-02T09:25:07;96908.81;;;13.81;93.97
48041;BME280;33815;48.386;11.738;2023-05-02T09:27:49;96900.59;;;13.51;94.06
48041;BME280;33815;48.386;11.738;2023-05-02T09:30:33;96914.34;;;13.53;96.81
48041;BME280;33815;48.386;11.738;2023-05-02T09:32:59;96899.72;;;13.34;95.84
48041;BME280;33815;48.386;11.738;2023-05-02T09:35:24;96916.63;;;13.40;95.41
48041;BME280;33815;48.386;11.738;2023-05-02T09:37:54;96908.81;;;13.57;96.46
48041;BME280;33815;48.386;11.738;2023-05-02T09:40:19;96918.81;;;13.78;96.61
48041;BME280;33815;48.386;11.738;2023-05-02T09:42:45;96916.69;;;13.90;94.49
48041;BME280;33815;48.386;11.738;2023-05-02T09:45:22;96918.81;;;13.94;93.37
48041;BME280;33815;48.386;11.738;2023-05-02T09:47:48;96918.34;;;14.07;93.45
48041;BME280;33815;48.386;11.738;2023-05-02T09:50:33;96926.22;;;14.07;91.84
48041;BME280;33815;48.386;11.738;2023-05-02T09:53:00;96925.03;;;14.10;92.36
48041;BME280;33815;48.386;11.738;2023-05-02T09:55:26;96927.53;;;14.11;91.92
48041;BME280;33815;48.386;11.738;2023-05-02T09:57:51;96928.97;;;14.22;90.95
48041;BME280;33815;48.386;11.738;2023-05-02T10:00:17;96916.22;;;14.11;92.60
48041;BME280;33815;48.386;11.738;2023-05-02T10:02:44;96925.03;;;14.34;91.38
48041;BME280;33815;48.386;11.738;2023-05-02T10:05:12;96925.88;;;14.27;90.82
48041;BME280;33815;48.386;11.738;2023-05-02T10:07:38;96909.47;;;14.33;91.87
48041;BME280;33815;48.386;11.738;2023-05-02T10:10:05;96914.88;;;14.48;90.86
48041;BME280;33815;48.386;11.738;2023-05-02T10:12:31;96927.78;;;14.82;90.33
48041;BME280;33815;48.386;11.738;2023-05-02T10:14:59;96918.50;;;14.63;88.74
48041;BME280;33815;48.386;11.738;2023-05-02T10:17:30;96928.84;;;14.07;90.75
48041;BME280;33815;48.386;11.738;2023-05-02T10:19:59;96930.06;;;13.53;93.77
48041;BME280;33815;48.386;11.738;2023-05-02T10:22:25;96932.28;;;13.32;95.35
48041;BME280;33815;48.386;11.738;2023-05-02T10:24:52;96932.88;;;13.17;96.94
48041;BME280;33815;48.386;11.738;2023-05-02T10:27:17;96938.31;;;13.24;96.78
48041;BME280;33815;48.386;11.738;2023-05-02T10:29:43;96936.06;;;13.03;96.40
48041;BME280;33815;48.386;11.738;2023-05-02T10:32:10;96934.09;;;12.97;96.49
48041;BME280;33815;48.386;11.738;2023-05-02T10:34:35;96937.31;;;12.82;97.29
48041;BME280;33815;48.386;11.738;2023-05-02T10:37:01;96936.56;;;12.98;99.35
48041;BME280;33815;48.386;11.738;2023-05-02T10:39:27;96925.00;;;13.09;93.48
48041;BME280;33815;48.386;11.738;2023-05-02T10:41:55;96932.25;;;13.24;94.76
48041;BME280;33815;48.386;11.738;2023-05-02T10:44:35;96933.75;;;13.34;94.61
48041;BME280;33815;48.386;11.738;2023-05-02T10:47:00;96936.84;;;13.30;91.78
48041;BME280;33815;48.386;11.738;2023-05-02T10:49:52;96937.41;;;13.42;89.50
48041;BME280;33815;48.386;11.738;2023-05-02T10:54:50;96928.41;;;13.44;89.86
48041;BME280;33815;48.386;11.738;2023-05-02T10:57:16;96926.97;;;13.58;87.63
48041;BME280;33815;48.386;11.738;2023-05-02T10:59:41;96930.78;;;13.72;86.25
48041;BME280;33815;48.386;11.738;2023-05-02T11:05:05;96920.78;;;13.84;86.52
48041;BME280;33815;48.386;11.738;2023-05-02T11:07:35;96934.38;;;14.04;85.71
48041;BME280;33815;48.386;11.738;2023-05-02T11:12:56;96927.31;;;14.54;86.09
48041;BME280;33815;48.386;11.738;2023-05-02T11:20:26;96918.50;;;14.30;86.47
48041;BME280;33815;48.386;11.738;2023-05-02T11:22:53;96925.53;;;14.46;83.95
48041;BME280;33815;48.386;11.738;2023-05-02T11:25:38;96919.97;;;14.16;83.34
48041;BME280;33815;48.386;11.738;2023-05-02T11:28:06;96925.56;;;14.21;82.53
48041;BME280;33815;48.386;11.738;2023-05-02T11:30:36;96909.19;;;14.03;82.46
48041;BME280;33815;48.386;11.738;2023-05-02T11:35:30;96909.59;;;15.20;85.77
48041;BME280;33815;48.386;11.738;2023-05-02T11:38:00;96911.69;;;15.56;82.62
48041;BME280;33815;48.386;11.738;2023-05-02T11:40:28;96899.41;;;15.25;80.96
48041;BME280;33815;48.386;11.738;2023-05-02T11:42:55;96908.19;;;15.10;80.24
48041;BME280;33815;48.386;11.738;2023-05-02T11:45:21;96923.16;;;15.32;81.54
48041;BME280;33815;48.386;11.738;2023-05-02T11:47:56;96904.78;;;15.32;77.14
48041;BME280;33815;48.386;11.738;2023-05-02T11:50:22;96925.94;;;15.39;75.96
48041;BME280;33815;48.386;11.738;2023-05-02T11:52:47;96925.25;;;16.23;79.21
48041;BME280;33815;48.386;11.738;2023-05-02T11:55:13;96917.59;;;17.11;78.49
48041;BME280;33815;48.386;11.738;2023-05-02T11:57:39;96908.31;;;17.88;69.97
48041;BME280;33815;48.386;11.738;2023-05-02T12:00:06;96915.25;;;18.32;71.41
48041;BME280;33815;48.386;11.738;2023-05-02T12:02:36;96913.38;;;18.26;66.12
48041;BME280;33815;48.386;11.738;2023-05-02T12:05:02;96916.00;;;17.83;68.65
48041;BME280;33815;48.386;11.738;2023-05-02T12:07:46;96912.22;;;17.71;67.22
48041;BME280;33815;48.386;11.738;2023-05-02T12:10:13;96914.75;;;17.79;63.75
48041;BME280;33815;48.386;11.738;2023-05-02T12:12:39;96909.38;;;17.51;63.89
48041;BME280;33815;48.386;11.738;2023-05-02T12:15:07;96908.06;;;17.61;66.84
48041;BME280;33815;48.386;11.738;2023-05-02T12:17:36;96912.00;;;17.14;68.64
48041;BME280;33815;48.386;11.738;2023-05-02T12:20:02;96900.25;;;17.32;68.22
48041;BME280;33815;48.386;11.738;2023-05-02T12:22:28;96905.78;;;17.37;72.06
48041;BME280;33815;48.386;11.738;2023-05-02T12:24:54;96897.47;;;17.55;67.38
48041;BME280;33815;48.386;11.738;2023-05-02T12:27:19;96907.53;;;17.29;67.98
48041;BME280;33815;48.386;11.738;2023-05-02T12:29:46;96902.34;;;17.58;66.14
48041;BME280;33815;48.386;11.738;2023-05-02T12:32:13;96906.59;;;17.22;65.97
48041;BME280;33815;48.386;11.738;2023-05-02T12:34:39;96901.63;;;16.83;67.11
48041;BME280;33815;48.386;11.738;2023-05-02T12:37:05;96922.19;;;16.34;71.08
48041;BME280;33815;48.386;11.738;2023-05-02T12:39:48;96907.97;;;15.51;71.21
48041;BME280;33815;48.386;11.738;2023-05-02T12:42:15;96934.06;;;15.21;73.58
48041;BME280;33815;48.386;11.738;2023-05-02T12:44:43;96938.31;;;14.16;66.71
48041;BME280;33815;48.386;11.738;2023-05-02T12:47:10;96947.34;;;13.30;67.84
48041;BME280;33815;48.386;11.738;2023-05-02T12:49:52;96966.34;;;12.71;73.55
48041;BME280;33815;48.386;11.738;2023-05-02T12:52:47;96991.06;;;10.75;95.18
48041;BME280;33815;48.386;11.738;2023-05-02T12:55:23;96981.38;;;9.19;100.00
48041;BME280;33815;48.386;11.738;2023-05-02T12:57:49;96989.41;;;8.54;100.00
48041;BME280;33815;48.386;11.738;2023-05-02T13:00:17;96979.72;;;8.24;100.00
48041;BME280;33815;48.386;11.738;2023-05-02T13:02:43;96977.69;;;8.06;100.00
48041;BME280;33815;48.386;11.738;2023-05-02T13:05:15;96971.75;;;7.83;100.00
48041;BME280;33815;48.386;11.738;2023-05-02T13:07:40;96967.16;;;7.87;100.00
48041;BME280;33815;48.386;11.738;2023-05-02T13:10:06;96952.34;;;7.66;100.00
48041;BME280;33815;48.386;11.738;2023-05-02T13:12:31;96929.66;;;7.47;100.00
48041;BME280;33815;48.386;11.738;2023-05-02T13:14:56;96948.63;;;7.59;100.00
48041;BME280;33815;48.386;11.738;2023-05-02T13:17:22;96950.00;;;7.63;100.00
48041;BME280;33815;48.386;11.738;2023-05-02T13:19:47;96932.25;;;7.47;100.00
48041;BME280;33815;48.386;11.738;2023-05-02T13:22:12;96958.50;;;7.65;100.00
48041;BME280;33815;48.386;11.738;2023-05-02T13:24:37;96963.50;;;7.78;100.00
48041;BME280;33815;48.386;11.738;2023-05-02T13:27:03;96962.69;;;7.78;100.00